This is the latest recevied weather packets stored in our database for station/object GW7110. If no packets are shown the sender has not sent any weather packets the latest 10 day(s).
| Time | Temp. | Humidity | Pressure | Rain* | Wind** | Luminosity | Snow |
|---|---|---|---|---|---|---|---|
| 1777734240 | 15.56° C | 49% | 30 hPa | 0 mm | - | 213 W/m² | - |
| 1777733939 | 15.56° C | 50% | 30 hPa | 0 mm | - | 207 W/m² | - |
| 1777733039 | 16.11° C | 48% | 30 hPa | 0 mm | - | 209 W/m² | - |
| 1777732739 | 16.11° C | 51% | 30 hPa | 0 mm | - | 216 W/m² | - |
| 1777732138 | 15° C | 50% | 30 hPa | 0 mm | - | 192 W/m² | - |
| 1777731538 | 15° C | 53% | 30 hPa | 0 mm | - | 164 W/m² | - |
| 1777731239 | 15° C | 52% | 30 hPa | 0 mm | - | 125 W/m² | - |
| 1777730638 | 14.44° C | 54% | 30 hPa | 0 mm | - | 95 W/m² | - |
| 1777730339 | 13.89° C | 56% | 30 hPa | 0 mm | - | 80 W/m² | - |
| 1777730039 | 13.89° C | 57% | 30 hPa | 0 mm | - | 51 W/m² | - |
| 1777728839 | 13.33° C | 59% | 30 hPa | 0 mm | - | 46 W/m² | - |
| 1777728539 | 12.78° C | 57% | 30 hPa | 0 mm | - | 41 W/m² | - |
| 1777727939 | 12.78° C | 57% | 30 hPa | 0 mm | - | 44 W/m² | - |
| 1777726439 | 12.22° C | 60% | 30 hPa | 0 mm | - | 27 W/m² | - |
| 1777724940 | 11.11° C | 69% | 30 hPa | 0 mm | - | 30 W/m² | - |
| 1777695539 | 13.89° C | 59% | 30 hPa | 0 mm | - | - | - |
| 1777694939 | 13.89° C | 60% | 30 hPa | 0 mm | - | - | - |
| 1777669440 | 19.44° C | 52% | 29.9 hPa | 0 mm | - | 193 W/m² | - |
| 1777668239 | 19.44° C | 50% | 29.9 hPa | 0 mm | - | 173 W/m² | - |
| 1777667339 | 19.44° C | 48% | 30 hPa | 0 mm | - | 180 W/m² | - |
| 1777665539 | 19.44° C | 52% | 30 hPa | 0 mm | - | 274 W/m² | - |
| 1777664340 | 18.89° C | 53% | 30 hPa | 0 mm | - | 325 W/m² | - |
| 1777661341 | 18.33° C | 58% | 30 hPa | 0 mm | - | 189 W/m² | - |
| 1777660139 | 18.33° C | 56% | 30 hPa | 0 mm | - | 274 W/m² | - |
| 1777659539 | 18.33° C | 57% | 30 hPa | 0 mm | - | 353 W/m² | - |
* Rain latest hour (hover to see other rain measurements)
** Current wind speed in m/s (hover to see current wind gust speed)